sensor_id;sensor_type;location;lat;lon;timestamp;pressure;altitude;pressure_sealevel;temperature;humidity
11678;BME280;5895;41.950;24.372;2023-03-21T00:02:09;86756.41;;;6.53;51.67
11678;BME280;5895;41.950;24.372;2023-03-21T00:04:37;86756.44;;;6.46;52.49
11678;BME280;5895;41.950;24.372;2023-03-21T00:07:04;86757.63;;;6.44;51.66
11678;BME280;5895;41.950;24.372;2023-03-21T00:09:32;86750.09;;;6.42;52.12
11678;BME280;5895;41.950;24.372;2023-03-21T00:11:59;86753.84;;;6.40;51.87
11678;BME280;5895;41.950;24.372;2023-03-21T00:14:27;86750.69;;;6.38;51.96
11678;BME280;5895;41.950;24.372;2023-03-21T00:16:55;86741.41;;;6.36;52.42
11678;BME280;5895;41.950;24.372;2023-03-21T00:19:22;86738.25;;;6.34;52.45
11678;BME280;5895;41.950;24.372;2023-03-21T00:21:52;86735.06;;;6.32;52.75
11678;BME280;5895;41.950;24.372;2023-03-21T00:24:20;86730.13;;;6.31;52.08
11678;BME280;5895;41.950;24.372;2023-03-21T00:26:48;86730.69;;;6.33;52.38
11678;BME280;5895;41.950;24.372;2023-03-21T00:29:15;86729.34;;;6.30;53.21
11678;BME280;5895;41.950;24.372;2023-03-21T00:31:42;86724.97;;;6.31;52.89
11678;BME280;5895;41.950;24.372;2023-03-21T00:34:09;86718.03;;;6.31;52.74
11678;BME280;5895;41.950;24.372;2023-03-21T00:36:37;86716.81;;;6.34;52.55
11678;BME280;5895;41.950;24.372;2023-03-21T00:39:05;86715.63;;;6.36;52.52
11678;BME280;5895;41.950;24.372;2023-03-21T00:41:32;86713.06;;;6.36;52.35
11678;BME280;5895;41.950;24.372;2023-03-21T00:44:00;86704.53;;;6.36;51.78
11678;BME280;5895;41.950;24.372;2023-03-21T00:46:28;86701.34;;;6.41;52.14
11678;BME280;5895;41.950;24.372;2023-03-21T00:48:55;86702.94;;;6.42;51.87
11678;BME280;5895;41.950;24.372;2023-03-21T00:51:23;86706.06;;;6.44;51.96
11678;BME280;5895;41.950;24.372;2023-03-21T00:53:53;86705.69;;;6.47;52.08
11678;BME280;5895;41.950;24.372;2023-03-21T00:56:22;86694.94;;;6.50;52.12
11678;BME280;5895;41.950;24.372;2023-03-21T00:58:49;86691.97;;;6.53;51.75
11678;BME280;5895;41.950;24.372;2023-03-21T01:01:17;86688.16;;;6.55;51.71
11678;BME280;5895;41.950;24.372;2023-03-21T01:03:44;86688.00;;;6.57;51.96
11678;BME280;5895;41.950;24.372;2023-03-21T01:06:17;86700.66;;;6.58;52.27
11678;BME280;5895;41.950;24.372;2023-03-21T01:08:46;86689.97;;;6.55;52.27
11678;BME280;5895;41.950;24.372;2023-03-21T01:11:15;86687.03;;;6.51;53.04
11678;BME280;5895;41.950;24.372;2023-03-21T01:13:44;86684.22;;;6.53;53.63
11678;BME280;5895;41.950;24.372;2023-03-21T01:16:11;86670.75;;;6.51;53.48
11678;BME280;5895;41.950;24.372;2023-03-21T01:18:39;86666.19;;;6.53;52.37
11678;BME280;5895;41.950;24.372;2023-03-21T01:21:08;86665.19;;;6.54;53.09
11678;BME280;5895;41.950;24.372;2023-03-21T01:23:38;86666.75;;;6.55;52.71
11678;BME280;5895;41.950;24.372;2023-03-21T01:26:06;86664.41;;;6.53;52.44
11678;BME280;5895;41.950;24.372;2023-03-21T01:28:37;86658.03;;;6.56;52.72
11678;BME280;5895;41.950;24.372;2023-03-21T01:31:06;86659.66;;;6.50;53.62
11678;BME280;5895;41.950;24.372;2023-03-21T01:33:34;86647.56;;;6.51;52.78
11678;BME280;5895;41.950;24.372;2023-03-21T01:36:02;86639.25;;;6.49;53.68
11678;BME280;5895;41.950;24.372;2023-03-21T01:38:29;86654.13;;;6.47;53.26
11678;BME280;5895;41.950;24.372;2023-03-21T01:40:59;86649.38;;;6.44;53.42
11678;BME280;5895;41.950;24.372;2023-03-21T01:43:28;86647.81;;;6.43;53.41
11678;BME280;5895;41.950;24.372;2023-03-21T01:46:24;86648.03;;;6.41;56.06
11678;BME280;5895;41.950;24.372;2023-03-21T01:48:57;86645.44;;;6.41;53.16
11678;BME280;5895;41.950;24.372;2023-03-21T01:51:26;86639.06;;;6.44;52.30
11678;BME280;5895;41.950;24.372;2023-03-21T01:53:54;86628.38;;;6.47;52.22
11678;BME280;5895;41.950;24.372;2023-03-21T01:56:24;86625.16;;;6.51;52.69
11678;BME280;5895;41.950;24.372;2023-03-21T01:58:56;86627.09;;;6.56;52.43
11678;BME280;5895;41.950;24.372;2023-03-21T02:01:29;86621.94;;;6.56;53.11
11678;BME280;5895;41.950;24.372;2023-03-21T02:04:00;86619.59;;;6.54;52.27
11678;BME280;5895;41.950;24.372;2023-03-21T02:06:35;86620.38;;;6.55;54.23
11678;BME280;5895;41.950;24.372;2023-03-21T02:09:07;86615.22;;;6.55;53.37
11678;BME280;5895;41.950;24.372;2023-03-21T02:11:36;86602.75;;;6.52;53.42
11678;BME280;5895;41.950;24.372;2023-03-21T02:14:14;86616.06;;;6.49;53.65
11678;BME280;5895;41.950;24.372;2023-03-21T02:16:52;86617.06;;;6.48;55.92
11678;BME280;5895;41.950;24.372;2023-03-21T02:22:52;86616.09;;;6.42;56.96
11678;BME280;5895;41.950;24.372;2023-03-21T02:28:31;86612.56;;;6.36;54.41
11678;BME280;5895;41.950;24.372;2023-03-21T02:31:23;86620.69;;;6.33;55.85
11678;BME280;5895;41.950;24.372;2023-03-21T02:34:43;86614.97;;;6.31;56.66
11678;BME280;5895;41.950;24.372;2023-03-21T02:37:19;86620.13;;;6.31;54.80
11678;BME280;5895;41.950;24.372;2023-03-21T02:39:59;86614.56;;;6.34;54.23
11678;BME280;5895;41.950;24.372;2023-03-21T02:42:40;86617.16;;;6.34;53.53
11678;BME280;5895;41.950;24.372;2023-03-21T02:45:15;86626.44;;;6.35;54.26
11678;BME280;5895;41.950;24.372;2023-03-21T02:47:46;86611.78;;;6.36;53.46
11678;BME280;5895;41.950;24.372;2023-03-21T02:50:21;86615.53;;;6.33;54.16
11678;BME280;5895;41.950;24.372;2023-03-21T02:52:53;86618.34;;;6.32;53.84
11678;BME280;5895;41.950;24.372;2023-03-21T02:55:23;86617.75;;;6.30;53.55
11678;BME280;5895;41.950;24.372;2023-03-21T02:57:53;86622.53;;;6.26;53.85
11678;BME280;5895;41.950;24.372;2023-03-21T03:00:22;86623.53;;;6.25;52.91
11678;BME280;5895;41.950;24.372;2023-03-21T03:02:50;86615.06;;;6.18;53.21
11678;BME280;5895;41.950;24.372;2023-03-21T03:05:21;86628.91;;;6.17;53.30
11678;BME280;5895;41.950;24.372;2023-03-21T03:08:04;86630.91;;;6.15;55.68
11678;BME280;5895;41.950;24.372;2023-03-21T03:10:44;86619.25;;;6.13;55.00
11678;BME280;5895;41.950;24.372;2023-03-21T03:13:29;86626.81;;;6.07;55.21
11678;BME280;5895;41.950;24.372;2023-03-21T03:16:06;86622.84;;;6.05;53.72
11678;BME280;5895;41.950;24.372;2023-03-21T03:18:46;86623.03;;;6.03;53.66
11678;BME280;5895;41.950;24.372;2023-03-21T03:21:19;86622.66;;;6.00;53.29
11678;BME280;5895;41.950;24.372;2023-03-21T03:23:51;86618.72;;;5.97;53.94
11678;BME280;5895;41.950;24.372;2023-03-21T03:26:24;86621.91;;;5.93;53.80
11678;BME280;5895;41.950;24.372;2023-03-21T03:28:54;86629.03;;;5.91;53.81
11678;BME280;5895;41.950;24.372;2023-03-21T03:31:26;86628.06;;;5.85;54.31
11678;BME280;5895;41.950;24.372;2023-03-21T03:33:58;86618.75;;;5.77;54.23
11678;BME280;5895;41.950;24.372;2023-03-21T03:36:29;86613.44;;;5.72;54.66
11678;BME280;5895;41.950;24.372;2023-03-21T03:39:05;86618.44;;;5.67;54.67
11678;BME280;5895;41.950;24.372;2023-03-21T03:41:39;86613.88;;;5.63;54.83
11678;BME280;5895;41.950;24.372;2023-03-21T03:44:07;86599.44;;;5.55;54.23
11678;BME280;5895;41.950;24.372;2023-03-21T03:46:38;86600.44;;;5.54;54.79
11678;BME280;5895;41.950;24.372;2023-03-21T03:49:12;86594.72;;;5.52;54.81
11678;BME280;5895;41.950;24.372;2023-03-21T03:51:50;86602.66;;;5.50;54.61
11678;BME280;5895;41.950;24.372;2023-03-21T03:54:22;86600.88;;;5.44;54.78
11678;BME280;5895;41.950;24.372;2023-03-21T03:56:52;86601.28;;;5.41;54.25
11678;BME280;5895;41.950;24.372;2023-03-21T03:59:20;86605.03;;;5.39;54.10
11678;BME280;5895;41.950;24.372;2023-03-21T04:01:48;86600.69;;;5.32;54.45
11678;BME280;5895;41.950;24.372;2023-03-21T04:04:15;86603.91;;;5.28;54.67
11678;BME280;5895;41.950;24.372;2023-03-21T04:06:42;86601.94;;;5.23;54.21
11678;BME280;5895;41.950;24.372;2023-03-21T04:09:10;86603.91;;;5.21;54.43
11678;BME280;5895;41.950;24.372;2023-03-21T04:11:39;86604.31;;;5.18;54.93
11678;BME280;5895;41.950;24.372;2023-03-21T04:14:06;86600.75;;;5.13;54.37
11678;BME280;5895;41.950;24.372;2023-03-21T04:16:33;86607.69;;;5.12;54.85
11678;BME280;5895;41.950;24.372;2023-03-21T04:19:00;86603.53;;;5.11;54.44
11678;BME280;5895;41.950;24.372;2023-03-21T04:21:28;86602.34;;;5.07;54.53
11678;BME280;5895;41.950;24.372;2023-03-21T04:23:56;86593.25;;;5.04;54.66
11678;BME280;5895;41.950;24.372;2023-03-21T04:26:23;86607.88;;;5.04;54.57
11678;BME280;5895;41.950;24.372;2023-03-21T04:28:51;86603.16;;;5.01;54.94
11678;BME280;5895;41.950;24.372;2023-03-21T04:31:18;86612.84;;;4.99;55.02
11678;BME280;5895;41.950;24.372;2023-03-21T04:33:45;86605.13;;;4.99;54.78
11678;BME280;5895;41.950;24.372;2023-03-21T04:36:14;86615.41;;;4.99;54.97
11678;BME280;5895;41.950;24.372;2023-03-21T04:38:52;86624.13;;;4.98;54.29
11678;BME280;5895;41.950;24.372;2023-03-21T04:41:19;86617.00;;;5.00;54.74
11678;BME280;5895;41.950;24.372;2023-03-21T04:43:46;86619.59;;;5.00;54.75
11678;BME280;5895;41.950;24.372;2023-03-21T04:46:16;86625.31;;;5.02;54.98
11678;BME280;5895;41.950;24.372;2023-03-21T04:48:43;86618.59;;;5.01;54.63
11678;BME280;5895;41.950;24.372;2023-03-21T04:51:11;86612.25;;;5.03;54.56
11678;BME280;5895;41.950;24.372;2023-03-21T04:53:38;86617.78;;;5.07;54.36
11678;BME280;5895;41.950;24.372;2023-03-21T04:56:09;86618.19;;;5.11;54.18
11678;BME280;5895;41.950;24.372;2023-03-21T04:58:37;86620.53;;;5.12;53.85
11678;BME280;5895;41.950;24.372;2023-03-21T05:01:05;86606.69;;;5.13;54.33
11678;BME280;5895;41.950;24.372;2023-03-21T05:03:34;86618.19;;;5.11;55.00
11678;BME280;5895;41.950;24.372;2023-03-21T05:06:05;86615.22;;;5.07;55.03
11678;BME280;5895;41.950;24.372;2023-03-21T05:08:33;86622.53;;;5.03;55.18
11678;BME280;5895;41.950;24.372;2023-03-21T05:11:00;86615.81;;;5.02;55.16
11678;BME280;5895;41.950;24.372;2023-03-21T05:13:27;86619.78;;;5.05;55.20
11678;BME280;5895;41.950;24.372;2023-03-21T05:15:54;86615.78;;;5.09;55.50
11678;BME280;5895;41.950;24.372;2023-03-21T05:18:21;86621.34;;;5.13;55.74
11678;BME280;5895;41.950;24.372;2023-03-21T05:20:52;86615.97;;;5.14;56.59
11678;BME280;5895;41.950;24.372;2023-03-21T05:23:20;86611.25;;;5.18;55.72
11678;BME280;5895;41.950;24.372;2023-03-21T05:25:47;86609.44;;;5.25;55.81
11678;BME280;5895;41.950;24.372;2023-03-21T05:28:15;86612.97;;;5.30;55.97
11678;BME280;5895;41.950;24.372;2023-03-21T05:30:43;86612.38;;;5.35;56.08
11678;BME280;5895;41.950;24.372;2023-03-21T05:33:10;86614.72;;;5.43;56.37
11678;BME280;5895;41.950;24.372;2023-03-21T05:35:38;86606.97;;;5.50;56.21
11678;BME280;5895;41.950;24.372;2023-03-21T05:38:07;86612.91;;;5.57;55.30
11678;BME280;5895;41.950;24.372;2023-03-21T05:40:34;86612.88;;;5.64;54.63
11678;BME280;5895;41.950;24.372;2023-03-21T05:43:01;86604.75;;;5.73;54.88
11678;BME280;5895;41.950;24.372;2023-03-21T05:45:28;86597.78;;;5.80;54.61
11678;BME280;5895;41.950;24.372;2023-03-21T05:47:55;86604.47;;;5.88;54.35
11678;BME280;5895;41.950;24.372;2023-03-21T05:50:22;86600.69;;;5.97;53.64
11678;BME280;5895;41.950;24.372;2023-03-21T05:52:49;86604.41;;;6.08;54.10
11678;BME280;5895;41.950;24.372;2023-03-21T05:55:18;86609.31;;;6.16;54.00
11678;BME280;5895;41.950;24.372;2023-03-21T05:57:45;86602.34;;;6.23;53.70
11678;BME280;5895;41.950;24.372;2023-03-21T06:00:14;86600.31;;;6.32;53.67
11678;BME280;5895;41.950;24.372;2023-03-21T06:02:41;86602.44;;;6.42;53.63
11678;BME280;5895;41.950;24.372;2023-03-21T06:05:09;86599.59;;;6.50;53.27
11678;BME280;5895;41.950;24.372;2023-03-21T06:07:36;86594.97;;;6.58;53.66
11678;BME280;5895;41.950;24.372;2023-03-21T06:10:05;86608.38;;;6.67;53.42
11678;BME280;5895;41.950;24.372;2023-03-21T06:12:34;86607.13;;;6.76;53.13
11678;BME280;5895;41.950;24.372;2023-03-21T06:15:01;86602.13;;;6.81;53.65
11678;BME280;5895;41.950;24.372;2023-03-21T06:17:29;86606.06;;;6.91;53.58
11678;BME280;5895;41.950;24.372;2023-03-21T06:19:57;86596.25;;;6.99;53.06
11678;BME280;5895;41.950;24.372;2023-03-21T06:22:25;86596.56;;;7.09;52.70
11678;BME280;5895;41.950;24.372;2023-03-21T06:24:52;86591.47;;;7.21;53.08
11678;BME280;5895;41.950;24.372;2023-03-21T06:27:19;86603.47;;;7.34;52.68
11678;BME280;5895;41.950;24.372;2023-03-21T06:29:48;86598.38;;;7.46;53.17
11678;BME280;5895;41.950;24.372;2023-03-21T06:32:15;86600.06;;;7.58;53.09
11678;BME280;5895;41.950;24.372;2023-03-21T06:34:43;86599.50;;;7.75;53.15
11678;BME280;5895;41.950;24.372;2023-03-21T06:37:10;86603.13;;;7.85;53.15
11678;BME280;5895;41.950;24.372;2023-03-21T06:39:37;86602.38;;;7.96;52.59
11678;BME280;5895;41.950;24.372;2023-03-21T06:42:04;86597.31;;;8.08;52.38
11678;BME280;5895;41.950;24.372;2023-03-21T06:44:31;86596.56;;;8.19;50.96
11678;BME280;5895;41.950;24.372;2023-03-21T06:46:59;86603.34;;;8.32;51.37
11678;BME280;5895;41.950;24.372;2023-03-21T06:49:26;86604.88;;;8.40;51.78
11678;BME280;5895;41.950;24.372;2023-03-21T06:51:53;86608.50;;;8.51;50.72
11678;BME280;5895;41.950;24.372;2023-03-21T06:54:21;86600.44;;;8.59;51.51
11678;BME280;5895;41.950;24.372;2023-03-21T06:56:48;86615.22;;;8.70;50.61
11678;BME280;5895;41.950;24.372;2023-03-21T06:59:15;86597.34;;;8.80;50.93
11678;BME280;5895;41.950;24.372;2023-03-21T07:01:42;86598.03;;;8.87;51.15
11678;BME280;5895;41.950;24.372;2023-03-21T07:04:11;86597.41;;;9.04;50.60
11678;BME280;5895;41.950;24.372;2023-03-21T07:06:38;86597.19;;;9.17;50.30
11678;BME280;5895;41.950;24.372;2023-03-21T07:09:06;86588.75;;;9.33;50.49
11678;BME280;5895;41.950;24.372;2023-03-21T07:11:35;86592.25;;;9.50;50.23
11678;BME280;5895;41.950;24.372;2023-03-21T07:14:03;86592.09;;;9.69;50.23
11678;BME280;5895;41.950;24.372;2023-03-21T07:16:31;86584.09;;;9.82;50.00
11678;BME280;5895;41.950;24.372;2023-03-21T07:18:58;86589.72;;;9.91;48.47
11678;BME280;5895;41.950;24.372;2023-03-21T07:21:26;86596.78;;;10.07;47.71
11678;BME280;5895;41.950;24.372;2023-03-21T07:23:53;86586.06;;;10.27;47.92
11678;BME280;5895;41.950;24.372;2023-03-21T07:26:20;86581.72;;;10.44;47.03
11678;BME280;5895;41.950;24.372;2023-03-21T07:28:47;86586.47;;;10.64;47.01
11678;BME280;5895;41.950;24.372;2023-03-21T07:31:16;86583.81;;;10.76;46.18
11678;BME280;5895;41.950;24.372;2023-03-21T07:33:44;86579.28;;;10.83;46.62
11678;BME280;5895;41.950;24.372;2023-03-21T07:36:12;86570.50;;;10.84;46.37
11678;BME280;5895;41.950;24.372;2023-03-21T07:38:42;86578.34;;;10.89;45.64
11678;BME280;5895;41.950;24.372;2023-03-21T07:41:09;86584.19;;;10.96;46.33
11678;BME280;5895;41.950;24.372;2023-03-21T07:43:36;86578.50;;;10.99;46.66
11678;BME280;5895;41.950;24.372;2023-03-21T07:46:04;86571.38;;;11.06;46.29
11678;BME280;5895;41.950;24.372;2023-03-21T07:48:31;86575.63;;;11.12;45.93
11678;BME280;5895;41.950;24.372;2023-03-21T07:50:58;86576.25;;;11.20;45.99
11678;BME280;5895;41.950;24.372;2023-03-21T07:53:26;86576.34;;;11.25;45.85
11678;BME280;5895;41.950;24.372;2023-03-21T07:55:55;86579.47;;;11.27;44.99
11678;BME280;5895;41.950;24.372;2023-03-21T07:58:22;86576.50;;;11.35;45.96
11678;BME280;5895;41.950;24.372;2023-03-21T08:00:50;86579.78;;;11.47;45.29
11678;BME280;5895;41.950;24.372;2023-03-21T08:03:17;86582.75;;;11.56;45.35
11678;BME280;5895;41.950;24.372;2023-03-21T08:05:44;86579.78;;;11.64;45.66
11678;BME280;5895;41.950;24.372;2023-03-21T08:08:12;86582.69;;;11.68;45.79
11678;BME280;5895;41.950;24.372;2023-03-21T08:10:41;86582.97;;;11.71;44.84
11678;BME280;5895;41.950;24.372;2023-03-21T08:13:11;86583.56;;;11.73;45.15
11678;BME280;5895;41.950;24.372;2023-03-21T08:15:38;86577.06;;;11.76;45.54
11678;BME280;5895;41.950;24.372;2023-03-21T08:18:06;86578.66;;;11.77;44.98
11678;BME280;5895;41.950;24.372;2023-03-21T08:20:34;86575.00;;;11.78;44.98
11678;BME280;5895;41.950;24.372;2023-03-21T08:23:01;86573.75;;;11.80;44.92
11678;BME280;5895;41.950;24.372;2023-03-21T08:25:28;86578.81;;;11.87;44.62
11678;BME280;5895;41.950;24.372;2023-03-21T08:27:55;86574.53;;;11.98;44.26
11678;BME280;5895;41.950;24.372;2023-03-21T08:30:25;86575.16;;;12.05;41.55
11678;BME280;5895;41.950;24.372;2023-03-21T08:32:55;86575.22;;;12.10;42.70
11678;BME280;5895;41.950;24.372;2023-03-21T08:35:24;86573.47;;;12.15;44.49
11678;BME280;5895;41.950;24.372;2023-03-21T08:37:51;86579.53;;;12.21;43.66
11678;BME280;5895;41.950;24.372;2023-03-21T08:40:19;86581.88;;;12.23;44.01
11678;BME280;5895;41.950;24.372;2023-03-21T08:42:46;86581.88;;;12.23;44.68
11678;BME280;5895;41.950;24.372;2023-03-21T08:45:15;86570.69;;;12.22;43.93
11678;BME280;5895;41.950;24.372;2023-03-21T08:47:44;86571.47;;;12.23;43.72
11678;BME280;5895;41.950;24.372;2023-03-21T08:50:14;86582.97;;;12.27;43.71
11678;BME280;5895;41.950;24.372;2023-03-21T08:52:41;86578.34;;;12.34;43.81
11678;BME280;5895;41.950;24.372;2023-03-21T08:55:09;86582.13;;;12.43;44.39
11678;BME280;5895;41.950;24.372;2023-03-21T08:57:37;86574.44;;;12.53;43.91
11678;BME280;5895;41.950;24.372;2023-03-21T09:00:06;86579.00;;;12.68;43.81
11678;BME280;5895;41.950;24.372;2023-03-21T09:02:37;86576.81;;;12.82;44.21
11678;BME280;5895;41.950;24.372;2023-03-21T09:05:06;86568.41;;;13.02;42.75
11678;BME280;5895;41.950;24.372;2023-03-21T09:07:36;86574.19;;;13.31;43.55
11678;BME280;5895;41.950;24.372;2023-03-21T09:10:05;86569.13;;;13.51;43.01
11678;BME280;5895;41.950;24.372;2023-03-21T09:12:33;86565.19;;;13.81;43.29
11678;BME280;5895;41.950;24.372;2023-03-21T09:15:00;86558.00;;;14.03;42.95
11678;BME280;5895;41.950;24.372;2023-03-21T09:17:29;86564.03;;;14.14;42.61
11678;BME280;5895;41.950;24.372;2023-03-21T09:19:57;86559.34;;;14.11;42.74
11678;BME280;5895;41.950;24.372;2023-03-21T09:22:27;86554.91;;;14.11;41.44
11678;BME280;5895;41.950;24.372;2023-03-21T09:24:55;86560.13;;;14.11;42.82
11678;BME280;5895;41.950;24.372;2023-03-21T09:27:23;86556.00;;;14.15;42.33
11678;BME280;5895;41.950;24.372;2023-03-21T09:29:52;86556.78;;;14.16;42.57
11678;BME280;5895;41.950;24.372;2023-03-21T09:32:20;86553.44;;;14.25;41.92
11678;BME280;5895;41.950;24.372;2023-03-21T09:34:47;86551.91;;;14.40;41.85
11678;BME280;5895;41.950;24.372;2023-03-21T09:37:14;86554.09;;;14.48;42.24
11678;BME280;5895;41.950;24.372;2023-03-21T09:39:43;86557.72;;;14.47;40.17
11678;BME280;5895;41.950;24.372;2023-03-21T09:42:18;86555.28;;;14.35;37.94
11678;BME280;5895;41.950;24.372;2023-03-21T09:44:58;86553.41;;;14.20;39.62
11678;BME280;5895;41.950;24.372;2023-03-21T09:47:30;86552.56;;;14.10;42.89
11678;BME280;5895;41.950;24.372;2023-03-21T09:50:03;86552.78;;;14.03;40.70
11678;BME280;5895;41.950;24.372;2023-03-21T09:52:38;86549.63;;;14.01;40.49
11678;BME280;5895;41.950;24.372;2023-03-21T09:55:15;86553.59;;;14.03;40.10
11678;BME280;5895;41.950;24.372;2023-03-21T09:57:46;86541.00;;;13.95;41.81
11678;BME280;5895;41.950;24.372;2023-03-21T10:00:20;86542.22;;;13.83;39.79
11678;BME280;5895;41.950;24.372;2023-03-21T10:02:53;86543.22;;;13.71;42.10
11678;BME280;5895;41.950;24.372;2023-03-21T10:05:26;86549.38;;;13.60;42.70
11678;BME280;5895;41.950;24.372;2023-03-21T10:07:59;86538.34;;;13.48;41.12
11678;BME280;5895;41.950;24.372;2023-03-21T10:10:34;86535.97;;;13.41;40.28
11678;BME280;5895;41.950;24.372;2023-03-21T10:13:02;86539.59;;;13.40;44.98
11678;BME280;5895;41.950;24.372;2023-03-21T10:15:31;86539.84;;;13.39;45.49
11678;BME280;5895;41.950;24.372;2023-03-21T10:18:00;86540.88;;;13.38;45.07
11678;BME280;5895;41.950;24.372;2023-03-21T10:20:30;86545.06;;;13.39;45.50
11678;BME280;5895;41.950;24.372;2023-03-21T10:22:59;86537.25;;;13.39;44.19
11678;BME280;5895;41.950;24.372;2023-03-21T10:25:32;86538.88;;;13.50;42.02
11678;BME280;5895;41.950;24.372;2023-03-21T10:28:00;86534.53;;;13.61;43.10
11678;BME280;5895;41.950;24.372;2023-03-21T10:30:34;86526.03;;;13.75;39.02
11678;BME280;5895;41.950;24.372;2023-03-21T10:33:05;86523.22;;;13.87;42.24
11678;BME280;5895;41.950;24.372;2023-03-21T10:35:35;86520.41;;;13.99;41.82
11678;BME280;5895;41.950;24.372;2023-03-21T10:38:04;86518.38;;;14.06;42.39
11678;BME280;5895;41.950;24.372;2023-03-21T10:40:33;86519.69;;;14.09;40.82
11678;BME280;5895;41.950;24.372;2023-03-21T10:43:17;86514.25;;;14.15;37.16
11678;BME280;5895;41.950;24.372;2023-03-21T10:45:45;86505.41;;;14.26;41.58
11678;BME280;5895;41.950;24.372;2023-03-21T10:48:13;86513.88;;;14.49;41.97
11678;BME280;5895;41.950;24.372;2023-03-21T10:50:41;86505.31;;;14.69;41.54
11678;BME280;5895;41.950;24.372;2023-03-21T10:53:16;86503.53;;;14.85;38.45
11678;BME280;5895;41.950;24.372;2023-03-21T10:55:47;86498.34;;;15.00;40.40
11678;BME280;5895;41.950;24.372;2023-03-21T10:58:18;86499.63;;;14.97;40.53
11678;BME280;5895;41.950;24.372;2023-03-21T11:00:54;86489.44;;;15.01;40.94
11678;BME280;5895;41.950;24.372;2023-03-21T11:03:26;86497.81;;;15.08;40.36
11678;BME280;5895;41.950;24.372;2023-03-21T11:06:00;86484.25;;;15.26;40.48
11678;BME280;5895;41.950;24.372;2023-03-21T11:08:28;86481.59;;;15.52;41.92
11678;BME280;5895;41.950;24.372;2023-03-21T11:11:02;86469.56;;;15.76;38.41
11678;BME280;5895;41.950;24.372;2023-03-21T11:13:33;86472.72;;;15.89;36.43
11678;BME280;5895;41.950;24.372;2023-03-21T11:16:08;86471.09;;;15.98;34.54
11678;BME280;5895;41.950;24.372;2023-03-21T11:18:41;86463.75;;;16.05;37.08
11678;BME280;5895;41.950;24.372;2023-03-21T11:21:10;86456.88;;;16.24;40.14
11678;BME280;5895;41.950;24.372;2023-03-21T11:23:41;86465.53;;;16.25;40.21
11678;BME280;5895;41.950;24.372;2023-03-21T11:26:18;86455.34;;;16.18;37.44
11678;BME280;5895;41.950;24.372;2023-03-21T11:28:49;86457.72;;;16.09;41.51
11678;BME280;5895;41.950;24.372;2023-03-21T11:31:17;86455.19;;;15.89;41.57
11678;BME280;5895;41.950;24.372;2023-03-21T11:33:51;86451.00;;;15.78;39.23
11678;BME280;5895;41.950;24.372;2023-03-21T11:36:30;86446.84;;;15.67;37.97
11678;BME280;5895;41.950;24.372;2023-03-21T11:39:12;86442.41;;;15.42;39.21
11678;BME280;5895;41.950;24.372;2023-03-21T11:41:42;86445.56;;;15.33;39.75
11678;BME280;5895;41.950;24.372;2023-03-21T11:44:25;86442.94;;;15.18;37.18
11678;BME280;5895;41.950;24.372;2023-03-21T11:46:52;86440.31;;;15.13;42.42
11678;BME280;5895;41.950;24.372;2023-03-21T11:49:20;86445.03;;;14.96;42.51
11678;BME280;5895;41.950;24.372;2023-03-21T11:51:57;86436.38;;;14.75;44.90
11678;BME280;5895;41.950;24.372;2023-03-21T11:54:36;86437.41;;;14.53;46.76
11678;BME280;5895;41.950;24.372;2023-03-21T11:57:13;86446.53;;;14.56;46.92
11678;BME280;5895;41.950;24.372;2023-03-21T11:59:52;86442.91;;;14.67;46.50
11678;BME280;5895;41.950;24.372;2023-03-21T12:02:46;86436.91;;;14.77;47.94
11678;BME280;5895;41.950;24.372;2023-03-21T12:05:24;86429.84;;;14.72;47.25
11678;BME280;5895;41.950;24.372;2023-03-21T12:08:00;86434.03;;;14.73;47.65
11678;BME280;5895;41.950;24.372;2023-03-21T12:10:38;86429.59;;;14.79;47.71
11678;BME280;5895;41.950;24.372;2023-03-21T12:13:23;86429.34;;;14.86;48.88
11678;BME280;5895;41.950;24.372;2023-03-21T12:16:06;86430.38;;;14.59;49.62
11678;BME280;5895;41.950;24.372;2023-03-21T12:18:54;86423.81;;;14.51;49.98
11678;BME280;5895;41.950;24.372;2023-03-21T12:21:26;86424.59;;;14.52;48.46
11678;BME280;5895;41.950;24.372;2023-03-21T12:24:02;86424.09;;;14.55;48.75
11678;BME280;5895;41.950;24.372;2023-03-21T12:26:39;86424.81;;;14.45;47.70
11678;BME280;5895;41.950;24.372;2023-03-21T12:29:29;86416.97;;;14.35;44.92
11678;BME280;5895;41.950;24.372;2023-03-21T12:32:10;86414.88;;;14.32;47.02
11678;BME280;5895;41.950;24.372;2023-03-21T12:34:58;86413.03;;;14.27;50.57
11678;BME280;5895;41.950;24.372;2023-03-21T12:37:32;86415.91;;;14.21;49.33
11678;BME280;5895;41.950;24.372;2023-03-21T12:40:08;86418.50;;;14.21;50.65
11678;BME280;5895;41.950;24.372;2023-03-21T12:42:52;86413.28;;;14.21;51.20
11678;BME280;5895;41.950;24.372;2023-03-21T12:45:24;86413.78;;;14.18;50.31
11678;BME280;5895;41.950;24.372;2023-03-21T12:48:10;86411.44;;;14.16;50.64
11678;BME280;5895;41.950;24.372;2023-03-21T12:50:40;86406.22;;;14.16;49.64
11678;BME280;5895;41.950;24.372;2023-03-21T12:53:17;86403.34;;;14.18;50.18
11678;BME280;5895;41.950;24.372;2023-03-21T12:55:48;86405.97;;;14.23;49.30
11678;BME280;5895;41.950;24.372;2023-03-21T12:58:17;86395.28;;;14.29;49.59
11678;BME280;5895;41.950;24.372;2023-03-21T13:00:50;86390.63;;;14.32;50.72
11678;BME280;5895;41.950;24.372;2023-03-21T13:03:21;86390.84;;;14.25;50.52
11678;BME280;5895;41.950;24.372;2023-03-21T13:05:52;86393.19;;;14.21;49.63
11678;BME280;5895;41.950;24.372;2023-03-21T13:08:25;86389.00;;;14.15;50.13
11678;BME280;5895;41.950;24.372;2023-03-21T13:10:54;86398.88;;;14.08;49.75
11678;BME280;5895;41.950;24.372;2023-03-21T13:13:25;86395.72;;;13.96;51.61
11678;BME280;5895;41.950;24.372;2023-03-21T13:16:05;86391.00;;;13.83;51.72
11678;BME280;5895;41.950;24.372;2023-03-21T13:18:42;86399.28;;;13.74;52.34
11678;BME280;5895;41.950;24.372;2023-03-21T13:21:15;86391.97;;;13.66;51.41
11678;BME280;5895;41.950;24.372;2023-03-21T13:23:58;86391.91;;;13.56;52.37
11678;BME280;5895;41.950;24.372;2023-03-21T13:26:37;86406.00;;;13.55;52.29
11678;BME280;5895;41.950;24.372;2023-03-21T13:29:21;86409.59;;;13.44;53.65
11678;BME280;5895;41.950;24.372;2023-03-21T13:31:52;86395.44;;;13.35;51.55